Time;durP1;ratioP1;P1;durP2;ratioP2;P2;SDS_P1;SDS_P2;PMS_P1;PMS_P2;Temp;Humidity;BMP_temperature;BMP_pressure;BME280_temperature;BME280_humidity;BME280_pressure;Samples;Min_cycle;Max_cycle;Signal;HPM_P1;HPM_P2
2023/04/06 00:01:31;;;;;;;9.70;5.35;;;;;;;11.17;32.82;101595.38;4932687;29;20032;-62
2023/04/06 00:03:56;;;;;;;9.90;5.20;;;;;;;11.13;33.25;101593.88;4933510;28;20040;-62
2023/04/06 00:06:22;;;;;;;13.88;6.80;;;;;;;11.10;32.89;101601.19;4948310;28;20042;-62
2023/04/06 00:08:47;;;;;;;10.90;6.45;;;;;;;11.08;33.00;101597.75;4948072;28;20047;-62
2023/04/06 00:11:13;;;;;;;11.70;5.60;;;;;;;11.07;32.54;101601.41;4916301;29;20035;-63
2023/04/06 00:13:38;;;;;;;9.85;5.03;;;;;;;11.04;33.41;101593.59;4932272;28;20035;-63
2023/04/06 00:16:05;;;;;;;12.43;5.47;;;;;;;11.00;33.06;101594.78;4932362;28;20127;-62
2023/04/06 00:18:31;;;;;;;10.13;5.63;;;;;;;10.98;33.10;101594.03;4916984;28;20044;-62
2023/04/06 00:20:57;;;;;;;11.75;6.05;;;;;;;10.94;33.19;101594.38;4934060;28;20400;-62
2023/04/06 00:23:22;;;;;;;13.00;5.53;;;;;;;10.88;33.68;101581.44;4916894;29;20039;-62
2023/04/06 00:25:48;;;;;;;14.50;5.63;;;;;;;10.86;33.65;101586.06;4916212;28;20063;-62
2023/04/06 00:28:14;;;;;;;12.32;6.60;;;;;;;10.85;33.59;101585.19;4932445;28;20043;-62
2023/04/06 00:30:40;;;;;;;11.63;5.82;;;;;;;10.84;33.73;101580.78;4931904;29;20040;-62
2023/04/06 00:33:06;;;;;;;14.93;6.75;;;;;;;10.83;33.17;101581.75;4915552;28;20097;-62
2023/04/06 00:35:31;;;;;;;12.60;5.32;;;;;;;10.80;33.84;101573.09;4900374;29;20040;-62
2023/04/06 00:37:57;;;;;;;9.40;6.03;;;;;;;10.82;33.13;101579.19;4916592;28;20511;-62
2023/04/06 00:40:22;;;;;;;14.55;6.10;;;;;;;10.79;33.98;101574.91;4932528;29;20032;-62
2023/04/06 00:42:48;;;;;;;12.65;6.55;;;;;;;10.77;33.92;101568.81;4932132;28;20503;-62
2023/04/06 00:45:13;;;;;;;11.25;5.28;;;;;;;10.75;33.41;101561.88;4915944;28;20415;-62
2023/04/06 00:47:39;;;;;;;13.40;6.38;;;;;;;10.70;34.21;101558.66;4916632;28;20396;-62
2023/04/06 00:50:05;;;;;;;14.93;6.28;;;;;;;10.68;33.25;101556.09;4950185;28;20039;-62
2023/04/06 00:52:30;;;;;;;9.02;6.75;;;;;;;10.66;33.96;101558.03;4920141;28;20031;-62
2023/04/06 00:54:56;;;;;;;14.38;6.68;;;;;;;10.64;33.90;101554.59;4916071;28;20043;-62
2023/04/06 00:57:21;;;;;;;14.80;7.00;;;;;;;10.58;33.66;101552.34;4931459;28;20067;-62
2023/04/06 00:59:47;;;;;;;11.15;6.18;;;;;;;10.60;33.40;101553.13;4931830;28;20086;-63
2023/04/06 01:02:12;;;;;;;13.38;6.70;;;;;;;10.58;34.29;101551.53;4932338;28;20044;-62
2023/04/06 01:04:38;;;;;;;12.20;5.85;;;;;;;10.56;34.33;101548.94;4931648;28;20450;-63
2023/04/06 01:07:04;;;;;;;14.77;7.03;;;;;;;10.52;34.25;101547.47;4916224;28;20115;-62
2023/04/06 01:09:30;;;;;;;14.73;7.05;;;;;;;10.50;34.28;101544.88;4931593;28;20046;-62
2023/04/06 01:11:56;;;;;;;13.63;7.57;;;;;;;10.49;33.60;101551.22;4931637;28;20460;-62
2023/04/06 01:14:23;;;;;;;13.48;7.15;;;;;;;10.48;33.53;101543.28;4931548;28;20067;-62
2023/04/06 01:16:48;;;;;;;13.25;6.25;;;;;;;10.42;34.43;101538.38;4931203;28;20031;-63
2023/04/06 01:19:13;;;;;;;11.30;7.10;;;;;;;10.41;34.58;101544.72;4915951;28;20479;-62
2023/04/06 01:21:40;;;;;;;13.05;5.60;;;;;;;10.36;34.09;101533.44;4931428;28;20048;-62
2023/04/06 01:24:06;;;;;;;14.02;5.50;;;;;;;10.34;34.50;101530.91;4932415;28;20419;-62
2023/04/06 01:26:32;;;;;;;12.40;6.35;;;;;;;10.32;33.77;101534.66;4915515;29;20063;-62
2023/04/06 01:28:57;;;;;;;24.20;6.13;;;;;;;10.31;35.27;101530.25;4915434;28;20063;-62
2023/04/06 01:31:24;;;;;;;13.05;5.70;;;;;;;10.30;34.26;101533.91;4932790;29;20450;-62
2023/04/06 01:33:50;;;;;;;15.55;6.25;;;;;;;10.30;34.29;101528.56;4932775;28;20043;-62
2023/04/06 01:36:16;;;;;;;15.13;6.32;;;;;;;10.30;34.38;101531.25;4932348;28;20515;-62
2023/04/06 01:38:41;;;;;;;19.42;7.00;;;;;;;10.30;34.44;101528.56;4931246;28;20040;-62
2023/04/06 01:41:08;;;;;;;11.00;5.75;;;;;;;10.27;34.23;101524.25;4931007;28;20044;-62
2023/04/06 01:43:33;;;;;;;21.52;6.30;;;;;;;10.27;34.63;101518.06;4931712;28;20472;-62
2023/04/06 01:45:59;;;;;;;12.43;6.53;;;;;;;10.31;33.96;101527.56;4899681;29;20058;-62
2023/04/06 01:48:26;;;;;;;14.13;6.40;;;;;;;10.27;34.94;101520.75;4931295;28;20102;-63
2023/04/06 01:50:52;;;;;;;13.15;5.95;;;;;;;10.27;34.29;101515.41;4933721;28;20515;-62
2023/04/06 01:53:17;;;;;;;12.40;6.38;;;;;;;10.24;34.37;101513.78;4918827;28;20142;-62
2023/04/06 01:55:43;;;;;;;14.82;5.82;;;;;;;10.19;34.63;101509.75;4933995;28;20044;-63
2023/04/06 01:58:08;;;;;;;10.63;6.43;;;;;;;10.20;34.89;101511.44;4918789;29;20036;-62
2023/04/06 02:00:34;;;;;;;18.10;6.45;;;;;;;10.19;34.96;101507.88;4960986;28;20067;-62
2023/04/06 02:02:59;;;;;;;10.77;5.57;;;;;;;10.15;34.90;101506.41;4937174;28;20065;-62
2023/04/06 02:05:25;;;;;;;12.70;5.80;;;;;;;10.10;34.65;101499.66;4953166;28;20036;-62
2023/04/06 02:07:51;;;;;;;15.18;5.75;;;;;;;10.11;35.13;101510.22;4937465;28;20055;-62
2023/04/06 02:10:17;;;;;;;11.35;5.18;;;;;;;10.09;35.48;101511.31;4937631;28;20554;-63
2023/04/06 02:12:42;;;;;;;10.93;5.40;;;;;;;10.06;35.47;101499.00;4953106;28;20415;-63
2023/04/06 02:15:08;;;;;;;11.88;6.32;;;;;;;10.03;34.65;101503.72;4954231;28;20031;-62
2023/04/06 02:17:34;;;;;;;10.50;5.50;;;;;;;10.01;35.18;101505.66;4937037;28;20043;-62
2023/04/06 02:19:59;;;;;;;11.98;5.57;;;;;;;9.98;35.65;101495.16;4954271;28;20483;-62
2023/04/06 02:22:24;;;;;;;12.00;5.60;;;;;;;9.95;34.94;101496.22;4953366;29;20035;-62
2023/04/06 02:24:50;;;;;;;15.07;6.38;;;;;;;9.93;35.50;101496.34;4952836;28;20035;-62
2023/04/06 02:27:15;;;;;;;12.63;5.70;;;;;;;9.94;35.42;101490.03;4953889;28;20503;-62
2023/04/06 02:29:41;;;;;;;12.80;5.40;;;;;;;9.94;35.42;101495.38;4936740;28;20415;-62
2023/04/06 02:32:07;;;;;;;14.60;6.28;;;;;;;9.94;34.97;101487.34;4936581;28;20062;-62
2023/04/06 02:34:32;;;;;;;18.05;6.90;;;;;;;9.91;35.22;101484.03;4953233;29;20049;-62
2023/04/06 02:36:57;;;;;;;17.00;6.53;;;;;;;9.93;35.06;101487.47;4952571;28;20039;-62
2023/04/06 02:39:23;;;;;;;11.63;5.55;;;;;;;9.89;35.42;101478.78;4953946;28;20046;-62
2023/04/06 02:41:48;;;;;;;14.20;6.80;;;;;;;9.92;35.19;101478.56;4952613;28;20051;-62
2023/04/06 02:44:14;;;;;;;16.67;5.85;;;;;;;9.88;35.83;101469.03;4952520;28;20050;-62
2023/04/06 02:46:39;;;;;;;17.20;5.65;;;;;;;9.91;35.99;101466.16;4952578;28;20030;-62
2023/04/06 02:49:05;;;;;;;11.68;5.85;;;;;;;9.91;36.24;101471.50;4952821;28;20035;-62
2023/04/06 02:51:30;;;;;;;10.25;5.35;;;;;;;9.89;35.23;101465.41;4952555;28;20062;-62
2023/04/06 02:53:56;;;;;;;12.35;6.10;;;;;;;9.93;34.88;101461.56;4936622;28;20571;-62
2023/04/06 02:56:21;;;;;;;20.38;6.38;;;;;;;9.94;35.39;101468.63;4953619;28;20418;-62
2023/04/06 02:58:47;;;;;;;12.80;6.18;;;;;;;9.95;35.63;101470.34;4936232;28;20035;-62
2023/04/06 03:01:13;;;;;;;11.68;6.28;;;;;;;9.99;35.74;101464.75;4951489;28;20035;-62
2023/04/06 03:03:38;;;;;;;10.98;5.40;;;;;;;10.01;35.81;101462.81;4952832;28;20046;-62
2023/04/06 03:06:04;;;;;;;11.50;6.10;;;;;;;10.02;36.14;101462.72;4937995;28;20032;-62
2023/04/06 03:08:30;;;;;;;11.60;5.55;;;;;;;10.03;36.01;101458.22;4957221;28;20384;-62
2023/04/06 03:10:55;;;;;;;12.30;5.68;;;;;;;10.03;35.93;101452.84;4954807;28;20031;-62
2023/04/06 03:13:21;;;;;;;11.73;5.57;;;;;;;10.07;35.23;101454.38;4954771;28;20118;-62
2023/04/06 03:15:46;;;;;;;13.43;6.18;;;;;;;10.05;35.65;101448.28;4951580;28;20039;-62
2023/04/06 03:18:12;;;;;;;19.65;6.40;;;;;;;10.07;35.89;101446.34;4936079;28;20047;-63
2023/04/06 03:20:37;;;;;;;13.10;5.90;;;;;;;10.09;36.40;101449.75;4952119;28;20031;-62
2023/04/06 03:23:03;;;;;;;18.08;5.68;;;;;;;10.10;35.58;101438.09;4952005;28;20089;-62
2023/04/06 03:25:29;;;;;;;12.73;5.70;;;;;;;10.10;36.17;101438.09;4936462;28;20028;-62
2023/04/06 03:27:55;;;;;;;10.43;5.82;;;;;;;10.13;35.63;101441.44;4968097;28;20042;-62
2023/04/06 03:30:20;;;;;;;12.48;5.18;;;;;;;10.16;36.21;101440.34;4936058;28;20039;-63
2023/04/06 03:32:46;;;;;;;12.23;6.05;;;;;;;10.20;36.15;101447.19;4951875;28;20039;-62
2023/04/06 03:35:12;;;;;;;15.48;6.18;;;;;;;10.23;35.77;101444.28;4967879;28;20475;-62
2023/04/06 03:37:37;;;;;;;10.52;4.72;;;;;;;10.26;35.54;101446.75;4951621;28;20053;-64
2023/04/06 03:40:04;;;;;;;12.52;6.10;;;;;;;10.27;36.60;101433.22;4936316;28;20062;-62
2023/04/06 03:42:30;;;;;;;14.85;5.97;;;;;;;10.26;36.42;101431.53;4954372;28;20059;-62
2023/04/06 03:44:56;;;;;;;10.82;5.88;;;;;;;10.31;35.98;101431.19;4936353;28;20126;-61
2023/04/06 03:47:21;;;;;;;12.45;6.13;;;;;;;10.33;36.31;101429.28;4941831;28;20470;-62
2023/04/06 03:49:47;;;;;;;11.35;4.80;;;;;;;10.36;36.13;101427.19;4935743;28;20055;-62
2023/04/06 03:52:12;;;;;;;10.45;5.43;;;;;;;10.40;36.50;101430.50;4952167;29;20490;-62
2023/04/06 03:54:37;;;;;;;12.43;5.18;;;;;;;10.41;36.04;101429.56;4952866;28;20039;-63
2023/04/06 03:57:04;;;;;;;11.05;5.82;;;;;;;10.46;36.31;101427.38;4951321;28;20078;-62
2023/04/06 03:59:29;;;;;;;11.45;5.50;;;;;;;10.47;36.36;101423.72;4935573;28;20169;-62
2023/04/06 04:01:55;;;;;;;14.70;5.95;;;;;;;10.51;36.30;101428.75;4952595;28;20471;-62
2023/04/06 04:04:20;;;;;;;13.45;5.68;;;;;;;10.54;36.25;101425.00;4951789;28;20047;-62
2023/04/06 04:06:46;;;;;;;10.30;5.55;;;;;;;10.53;36.98;101420.59;4951350;28;20039;-62
2023/04/06 04:09:11;;;;;;;13.13;5.85;;;;;;;10.56;36.50;101425.72;4951059;28;20046;-62
2023/04/06 04:11:36;;;;;;;10.23;5.55;;;;;;;10.55;37.03;101429.38;4951411;28;20568;-62
2023/04/06 04:14:02;;;;;;;12.25;4.95;;;;;;;10.57;36.48;101432.81;4951039;28;20049;-62
2023/04/06 04:16:27;;;;;;;12.38;5.70;;;;;;;10.60;36.78;101434.41;4951649;28;20414;-62
2023/04/06 04:18:53;;;;;;;10.65;6.22;;;;;;;10.61;36.76;101436.94;4951522;28;20042;-62
2023/04/06 04:21:18;;;;;;;13.90;5.85;;;;;;;10.62;36.12;101441.34;4951399;28;20078;-62
2023/04/06 04:23:44;;;;;;;10.98;5.82;;;;;;;10.64;36.31;101446.56;4935330;28;20438;-62
2023/04/06 04:26:10;;;;;;;12.02;6.28;;;;;;;10.64;36.45;101436.72;4967200;28;20509;-62
2023/04/06 04:28:35;;;;;;;11.52;5.68;;;;;;;10.64;36.90;101436.72;4953158;28;20486;-62
2023/04/06 04:31:01;;;;;;;10.65;4.88;;;;;;;10.67;36.98;101431.13;4951071;28;20050;-62
2023/04/06 04:33:26;;;;;;;10.43;5.15;;;;;;;10.69;36.47;101433.72;4951002;28;20126;-62
2023/04/06 04:35:52;;;;;;;10.95;5.88;;;;;;;10.71;37.59;101434.44;4951381;28;20054;-62
2023/04/06 04:38:17;;;;;;;12.50;5.43;;;;;;;10.70;36.65;101430.91;4951779;28;20516;-62
2023/04/06 04:40:43;;;;;;;11.70;5.68;;;;;;;10.72;36.77;101438.84;4951586;28;20035;-62
2023/04/06 04:43:08;;;;;;;14.18;5.45;;;;;;;10.74;36.59;101437.75;4951203;29;20027;-62
2023/04/06 04:45:34;;;;;;;11.68;6.28;;;;;;;10.73;36.98;101432.50;4952016;28;20039;-62
2023/04/06 04:47:59;;;;;;;13.07;5.13;;;;;;;10.75;36.66;101433.25;4952161;28;20035;-62
2023/04/06 04:50:24;;;;;;;13.82;5.93;;;;;;;10.74;37.10;101435.06;4934650;28;20056;-63
2023/04/06 04:52:50;;;;;;;11.18;6.05;;;;;;;10.74;37.25;101426.19;4919143;28;20039;-62
2023/04/06 04:55:16;;;;;;;14.18;6.15;;;;;;;10.75;37.13;101428.72;4951095;29;20032;-62
2023/04/06 04:57:41;;;;;;;9.75;5.13;;;;;;;10.74;36.98;101421.69;4934814;28;20098;-63
2023/04/06 05:00:07;;;;;;;11.02;4.97;;;;;;;10.77;36.89;101429.50;4973884;28;20059;-62
2023/04/06 05:02:33;;;;;;;16.38;5.93;;;;;;;10.76;36.91;101414.38;4966744;28;20510;-62
2023/04/06 05:04:58;;;;;;;13.88;6.57;;;;;;;10.79;37.05;101419.50;4951831;28;20035;-63
2023/04/06 05:07:25;;;;;;;13.38;6.22;;;;;;;10.82;37.16;101427.31;4951252;28;20035;-62
2023/04/06 05:09:50;;;;;;;10.55;5.75;;;;;;;10.83;36.85;101426.31;4934747;28;20048;-62
2023/04/06 05:12:16;;;;;;;16.08;6.97;;;;;;;10.86;37.17;101430.63;4966573;28;20130;-62
2023/04/06 05:14:41;;;;;;;12.95;6.05;;;;;;;10.86;36.79;101428.78;4950699;28;20038;-62
2023/04/06 05:17:07;;;;;;;17.65;6.43;;;;;;;10.92;37.42;101428.31;4934534;28;20040;-63
2023/04/06 05:19:33;;;;;;;15.43;6.72;;;;;;;10.96;37.55;101429.78;4951099;29;20034;-62
2023/04/06 05:21:59;;;;;;;16.27;6.05;;;;;;;11.00;36.80;101423.22;4935339;28;20404;-62
2023/04/06 05:24:25;;;;;;;11.80;5.95;;;;;;;11.06;37.15;101428.13;4951590;28;20525;-62
2023/04/06 05:26:50;;;;;;;14.00;5.40;;;;;;;11.07;36.86;101424.47;4953751;28;20035;-62
2023/04/06 05:29:16;;;;;;;14.23;4.95;;;;;;;11.11;36.97;101425.94;4953705;28;20084;-62
2023/04/06 05:31:42;;;;;;;14.20;5.70;;;;;;;11.15;37.20;101425.69;4954640;28;20031;-62
2023/04/06 05:34:09;;;;;;;16.50;6.35;;;;;;;11.17;36.82;101418.41;4954427;29;20445;-63
2023/04/06 05:36:34;;;;;;;15.95;6.88;;;;;;;11.17;36.57;101418.41;4953738;28;20043;-63
2023/04/06 05:39:00;;;;;;;14.50;6.18;;;;;;;11.23;36.89;101425.94;4953435;28;20093;-62
2023/04/06 05:41:26;;;;;;;13.07;6.05;;;;;;;11.25;36.80;101419.50;4953600;28;20039;-62
2023/04/06 05:43:51;;;;;;;16.65;5.68;;;;;;;11.33;37.08;101413.56;4955354;28;20411;-61
2023/04/06 05:46:17;;;;;;;18.15;6.05;;;;;;;11.41;36.86;101413.81;4969774;28;20134;-62
2023/04/06 05:48:42;;;;;;;13.50;6.55;;;;;;;11.46;37.19;101406.25;4954439;28;20039;-62
2023/04/06 05:51:07;;;;;;;16.35;6.35;;;;;;;11.45;37.26;101396.47;4969259;28;20051;-63
2023/04/06 05:53:33;;;;;;;11.25;5.38;;;;;;;11.57;37.19;101407.13;4969311;28;20063;-61
2023/04/06 05:56:02;;;;;;;11.15;6.05;;;;;;;11.65;37.25;101414.53;4953325;28;20130;-62
2023/04/06 05:58:28;;;;;;;10.70;5.50;;;;;;;11.73;37.12;101412.13;4969746;28;20612;-62
2023/04/06 06:00:57;;;;;;;15.20;6.05;;;;;;;11.80;37.08;101408.00;4954585;28;20054;-64
2023/04/06 06:03:23;;;;;;;12.10;6.60;;;;;;;11.86;37.29;101412.88;4937249;28;20047;-62
2023/04/06 06:05:48;;;;;;;11.13;5.78;;;;;;;11.93;37.00;101414.09;4953119;28;20070;-61
2023/04/06 06:08:14;;;;;;;13.07;5.95;;;;;;;11.99;37.26;101413.59;4954318;28;20031;-62
2023/04/06 06:10:40;;;;;;;12.02;5.28;;;;;;;12.05;37.35;101406.88;4953098;28;20027;-62
2023/04/06 06:13:05;;;;;;;12.85;6.50;;;;;;;12.11;37.04;101407.25;4953414;29;20031;-62
2023/04/06 06:15:31;;;;;;;11.82;5.55;;;;;;;12.19;37.63;101417.34;4937066;28;20043;-62
2023/04/06 06:17:56;;;;;;;14.52;5.80;;;;;;;12.26;37.54;101410.47;4937071;28;20047;-62
2023/04/06 06:20:22;;;;;;;13.43;6.38;;;;;;;12.32;37.05;101409.13;4954327;28;20043;-63
2023/04/06 06:22:47;;;;;;;11.85;6.07;;;;;;;12.35;37.61;101404.34;4969065;28;20490;-61
2023/04/06 06:25:13;;;;;;;16.98;6.78;;;;;;;12.46;37.20;101407.00;4969379;28;20042;-61
2023/04/06 06:27:38;;;;;;;15.63;6.50;;;;;;;12.55;37.01;101405.41;4953031;28;20035;-61
2023/04/06 06:30:04;;;;;;;18.70;6.72;;;;;;;12.63;37.33;101413.66;4954098;28;20045;-62
2023/04/06 06:32:30;;;;;;;21.13;6.75;;;;;;;12.71;37.81;101408.50;4936871;28;20078;-62
2023/04/06 06:34:55;;;;;;;15.65;7.32;;;;;;;12.81;37.97;101409.47;4953961;28;20438;-61
2023/04/06 06:37:21;;;;;;;11.65;6.40;;;;;;;12.92;36.98;101406.72;4953008;28;20426;-61
2023/04/06 06:39:46;;;;;;;11.98;5.90;;;;;;;13.02;37.21;101409.44;4968807;28;20054;-62
2023/04/06 06:42:11;;;;;;;12.88;6.25;;;;;;;13.09;37.23;101406.13;4952962;28;20035;-61
2023/04/06 06:44:37;;;;;;;15.38;6.43;;;;;;;13.23;37.64;101405.81;4952659;28;20481;-61
2023/04/06 06:47:02;;;;;;;14.20;5.82;;;;;;;13.32;37.61;101406.84;4968841;28;20479;-62
2023/04/06 06:49:28;;;;;;;17.75;6.90;;;;;;;13.46;36.89;101405.66;4952861;28;20051;-61
2023/04/06 06:51:53;;;;;;;14.52;6.25;;;;;;;13.59;37.43;101409.00;4936577;28;20031;-61
2023/04/06 06:54:18;;;;;;;13.90;6.00;;;;;;;13.69;36.48;101409.88;4968682;28;20040;-62
2023/04/06 06:56:44;;;;;;;16.20;6.28;;;;;;;13.77;37.54;101405.53;4968783;28;20058;-62
2023/04/06 06:59:10;;;;;;;14.45;7.57;;;;;;;13.86;36.55;101406.56;4968502;28;20035;-61
2023/04/06 07:01:36;;;;;;;13.30;5.93;;;;;;;13.90;36.82;101402.63;4953938;28;20046;-62
2023/04/06 07:04:01;;;;;;;16.42;6.75;;;;;;;13.99;36.47;101408.03;4952522;28;20039;-62
2023/04/06 07:06:26;;;;;;;14.90;7.07;;;;;;;14.06;37.49;101407.47;4968547;28;20042;-63
2023/04/06 07:08:52;;;;;;;16.60;6.63;;;;;;;14.09;36.62;101391.91;4936519;28;20043;-61
2023/04/06 07:11:17;;;;;;;18.77;7.60;;;;;;;14.18;36.63;101393.75;4952094;28;20054;-62
2023/04/06 07:13:43;;;;;;;11.57;6.40;;;;;;;14.25;37.45;101399.44;4951998;28;20031;-62
2023/04/06 07:16:09;;;;;;;14.93;7.03;;;;;;;14.30;36.67;101387.25;4968551;28;20034;-62
2023/04/06 07:18:34;;;;;;;11.27;5.57;;;;;;;14.36;37.22;101393.97;4952157;28;20415;-62
2023/04/06 07:20:59;;;;;;;16.48;5.45;;;;;;;14.40;36.35;101390.88;4952144;28;20055;-62
2023/04/06 07:23:25;;;;;;;16.63;6.38;;;;;;;14.45;36.84;101382.34;4951988;28;20538;-62
2023/04/06 07:25:52;;;;;;;15.38;6.75;;;;;;;14.52;36.09;101384.31;4967966;28;20027;-62
2023/04/06 07:28:17;;;;;;;16.38;6.40;;;;;;;14.56;36.42;101390.28;4952437;28;20082;-61
2023/04/06 07:30:43;;;;;;;14.60;6.88;;;;;;;14.63;37.45;101393.28;4967838;28;20490;-61
2023/04/06 07:33:08;;;;;;;12.60;5.32;;;;;;;14.66;36.86;101387.59;4935967;28;20613;-61
2023/04/06 07:35:34;;;;;;;12.43;5.28;;;;;;;14.74;37.19;101383.19;4952121;28;20039;-62
2023/04/06 07:38:00;;;;;;;15.48;6.53;;;;;;;14.81;36.70;101381.63;4951822;28;20062;-61
2023/04/06 07:40:26;;;;;;;12.50;5.93;;;;;;;14.86;37.11;101375.81;4936191;28;20058;-61
2023/04/06 07:42:52;;;;;;;13.60;4.60;;;;;;;14.97;35.93;101379.19;4967777;28;20043;-61
2023/04/06 07:45:18;;;;;;;14.55;5.13;;;;;;;15.06;35.82;101375.66;4935845;28;20047;-62
2023/04/06 07:47:43;;;;;;;12.63;5.38;;;;;;;15.18;35.83;101372.78;4950988;28;20043;-62
2023/04/06 07:50:09;;;;;;;12.38;5.00;;;;;;;15.27;37.04;101369.22;4952601;28;20460;-62
2023/04/06 07:52:35;;;;;;;15.02;6.18;;;;;;;15.34;36.64;101373.88;4968085;28;20035;-62
2023/04/06 07:55:00;;;;;;;15.00;5.07;;;;;;;15.47;36.75;101374.44;4967508;28;20181;-62
2023/04/06 07:57:26;;;;;;;13.07;5.13;;;;;;;15.58;35.92;101365.28;4967812;28;20089;-61
2023/04/06 07:59:51;;;;;;;11.57;5.35;;;;;;;15.71;36.39;101366.69;4951616;28;20081;-62
2023/04/06 08:02:17;;;;;;;10.52;4.07;;;;;;;15.87;35.98;101371.41;4920043;28;20032;-61
2023/04/06 08:04:43;;;;;;;15.60;5.63;;;;;;;16.03;36.48;101373.47;4952631;28;20418;-61
2023/04/06 08:07:08;;;;;;;12.35;5.40;;;;;;;16.22;35.12;101368.78;4935903;28;20061;-62
2023/04/06 08:09:33;;;;;;;10.73;5.07;;;;;;;16.41;36.27;101372.38;4951346;28;20059;-61
2023/04/06 08:12:00;;;;;;;13.52;4.90;;;;;;;16.60;35.97;101374.97;4952466;28;20039;-62
2023/04/06 08:14:26;;;;;;;14.05;5.03;;;;;;;16.76;34.63;101377.81;4951439;28;20035;-62
2023/04/06 08:16:51;;;;;;;15.82;6.03;;;;;;;16.88;34.97;101371.16;4951092;28;20513;-62
2023/04/06 08:19:17;;;;;;;14.73;6.07;;;;;;;16.99;35.77;101383.59;4951658;28;20041;-62
2023/04/06 08:21:43;;;;;;;14.90;5.85;;;;;;;17.04;35.58;101375.84;4951344;28;20506;-62
2023/04/06 08:24:08;;;;;;;18.25;5.50;;;;;;;17.12;35.75;101379.47;4951166;28;20114;-62
2023/04/06 08:26:34;;;;;;;10.20;5.47;;;;;;;17.17;35.84;101381.72;4952392;28;20123;-62
2023/04/06 08:29:00;;;;;;;14.60;6.07;;;;;;;17.21;35.42;101380.38;4951135;28;20039;-62
2023/04/06 08:31:26;;;;;;;16.77;6.30;;;;;;;17.24;34.90;101380.06;4951585;29;20053;-62
2023/04/06 08:33:51;;;;;;;15.35;6.22;;;;;;;17.23;35.04;101372.94;4951297;28;20122;-62
2023/04/06 08:36:20;;;;;;;23.63;6.07;;;;;;;17.24;35.38;101380.06;4966980;28;20558;-62
2023/04/06 08:38:45;;;;;;;17.10;5.97;;;;;;;17.25;35.43;101379.88;4935679;28;20449;-62
2023/04/06 08:41:12;;;;;;;15.15;5.95;;;;;;;17.30;35.44;101384.84;4935123;28;20031;-62
2023/04/06 08:43:43;;;;;;;13.30;5.88;;;;;;;17.29;35.54;101385.84;4966953;28;20034;-63
2023/04/06 08:46:10;;;;;;;19.63;6.07;;;;;;;17.30;34.26;101384.84;4951412;29;20099;-62
2023/04/06 08:48:36;;;;;;;15.05;5.97;;;;;;;17.32;34.56;101375.53;4950986;28;20039;-62
2023/04/06 08:51:02;;;;;;;18.92;6.10;;;;;;;17.31;34.28;101383.81;4950564;28;20047;-62
2023/04/06 08:53:28;;;;;;;19.35;6.85;;;;;;;17.30;34.09;101387.56;4967394;28;20046;-62
2023/04/06 08:55:54;;;;;;;14.65;6.25;;;;;;;17.30;33.77;101382.13;4952376;28;20039;-64
2023/04/06 08:58:22;;;;;;;22.17;6.55;;;;;;;17.31;33.56;101386.53;4952947;29;20104;-65
2023/04/06 09:00:47;;;;;;;11.20;5.25;;;;;;;17.32;35.06;101391.78;4953397;28;20078;-62
2023/04/06 09:03:13;;;;;;;11.75;6.45;;;;;;;17.33;34.94;101388.09;4954225;28;20552;-61
2023/04/06 09:05:39;;;;;;;16.55;6.57;;;;;;;17.40;34.62;101393.69;4954154;28;20032;-61
2023/04/06 09:08:05;;;;;;;13.57;6.32;;;;;;;17.40;34.36;101391.00;4938141;28;20034;-61
2023/04/06 09:10:32;;;;;;;13.50;6.00;;;;;;;17.30;34.04;101372.16;4938565;28;20042;-62
2023/04/06 09:13:07;;;;;;;16.05;6.22;;;;;;;17.43;33.42;101398.81;4970067;28;20046;-61
2023/04/06 09:15:33;;;;;;;18.48;6.55;;;;;;;17.46;34.02;101393.06;4969992;28;20514;-62
2023/04/06 09:17:58;;;;;;;16.10;5.05;;;;;;;17.52;34.71;101397.84;4938258;28;20043;-62
2023/04/06 09:20:28;;;;;;;10.02;5.30;;;;;;;17.57;33.49;101400.94;4937995;28;20406;-62
2023/04/06 09:22:54;;;;;;;13.68;6.30;;;;;;;17.64;33.53;101404.75;4953794;28;20042;-62
2023/04/06 09:25:22;;;;;;;16.13;6.30;;;;;;;17.71;33.92;101403.06;4970309;28;20024;-61
2023/04/06 09:27:49;;;;;;;13.55;5.90;;;;;;;17.79;34.22;101397.69;5038266;28;20035;-62
2023/04/06 09:30:16;;;;;;;22.42;6.45;;;;;;;17.84;34.69;101392.63;4953748;28;20035;-62
2023/04/06 09:32:49;;;;;;;17.15;6.97;;;;;;;17.92;34.41;101384.53;4969706;28;20059;-62
2023/04/06 09:35:15;;;;;;;;;;;;;;;17.99;33.20;101391.00;4938212;28;20027;-62
2023/04/06 09:37:46;;;;;;;15.95;5.57;;;;;;;18.02;34.19;101390.69;4953463;28;20297;-62
2023/04/06 09:40:13;;;;;;;13.95;5.90;;;;;;;18.05;34.40;101378.66;4937971;28;20027;-62
2023/04/06 09:42:41;;;;;;;15.45;6.28;;;;;;;18.11;34.28;101382.56;4954025;28;20503;-62
2023/04/06 09:45:07;;;;;;;13.98;6.65;;;;;;;18.13;33.78;101381.41;4953768;28;20040;-62
2023/04/06 09:47:33;;;;;;;13.68;5.05;;;;;;;18.23;33.20;101392.13;4937962;28;20035;-61
2023/04/06 09:49:59;;;;;;;16.02;5.53;;;;;;;18.27;33.02;101377.19;4953478;28;20043;-62
2023/04/06 09:52:41;;;;;;;14.60;5.63;;;;;;;18.34;34.57;101389.09;4953792;29;20446;-62
2023/04/06 09:55:07;;;;;;;13.95;5.93;;;;;;;18.40;34.17;101383.84;4953463;28;20070;-62
2023/04/06 09:57:51;;;;;;;12.52;5.72;;;;;;;18.49;33.66;101382.03;4953345;28;20442;-62
2023/04/06 10:00:19;;;;;;;10.82;5.35;;;;;;;18.54;33.88;101385.06;4969286;28;20114;-62
2023/04/06 10:03:11;;;;;;;11.23;5.22;;;;;;;18.64;33.70;101385.78;4937549;28;20085;-62
2023/04/06 10:05:47;;;;;;;11.88;5.65;;;;;;;18.70;33.16;101382.41;4953244;28;20039;-62
2023/04/06 10:08:13;;;;;;;12.65;4.68;;;;;;;18.80;33.58;101384.94;4953342;28;20035;-62
2023/04/06 10:10:39;;;;;;;10.48;5.63;;;;;;;18.83;33.64;101396.31;4936879;28;20065;-62
2023/04/06 10:13:05;;;;;;;10.43;4.63;;;;;;;18.88;33.27;101393.09;4953713;28;20027;-62
2023/04/06 10:15:31;;;;;;;10.40;5.25;;;;;;;18.96;33.51;101393.09;4953027;28;20127;-62
2023/04/06 10:18:00;;;;;;;11.68;5.75;;;;;;;19.03;33.00;101386.81;4953049;28;20085;-62
2023/04/06 10:20:54;;;;;;;11.88;5.47;;;;;;;19.10;32.96;101393.25;4936992;28;20525;-62
2023/04/06 10:23:29;;;;;;;8.27;4.28;;;;;;;19.17;33.43;101394.28;4954190;28;20031;-62
2023/04/06 10:25:57;;;;;;;12.25;4.75;;;;;;;19.19;33.03;101392.25;4936850;28;20108;-62
2023/04/06 10:28:23;;;;;;;8.10;4.25;;;;;;;19.18;33.05;101390.53;4953219;28;20134;-62
2023/04/06 10:30:49;;;;;;;8.88;4.18;;;;;;;19.15;33.16;101407.16;4952977;28;20043;-62
2023/04/06 10:33:18;;;;;;;14.48;4.43;;;;;;;19.15;33.46;101401.75;4954105;28;20406;-61
2023/04/06 10:35:44;;;;;;;12.48;4.90;;;;;;;19.12;33.81;101401.25;4952781;28;20070;-62
2023/04/06 10:38:11;;;;;;;11.00;3.95;;;;;;;19.08;33.64;101403.47;4936836;28;20039;-62
2023/04/06 10:40:38;;;;;;;7.63;3.85;;;;;;;19.02;33.12;101395.97;4953082;29;20050;-62
2023/04/06 10:43:18;;;;;;;7.47;4.40;;;;;;;18.98;33.46;101394.63;4952902;29;20143;-62
2023/04/06 10:45:44;;;;;;;10.07;4.50;;;;;;;18.99;33.32;101400.91;4968746;28;20115;-62
2023/04/06 10:48:17;;;;;;;6.35;3.85;;;;;;;18.97;33.93;101392.94;4953832;28;20070;-62
2023/04/06 10:50:50;;;;;;;6.95;3.65;;;;;;;18.92;33.56;101400.75;4936555;28;20057;-62
2023/04/06 10:53:26;;;;;;;10.15;4.13;;;;;;;18.90;34.03;101401.94;4952418;28;20093;-61
2023/04/06 10:55:52;;;;;;;7.88;3.92;;;;;;;18.87;33.59;101392.22;4936426;28;20032;-62
2023/04/06 10:58:18;;;;;;;7.20;4.03;;;;;;;18.89;33.80;101395.66;4936870;28;20035;-62
2023/04/06 11:00:48;;;;;;;9.38;4.82;;;;;;;18.90;33.67;101389.19;4930255;28;20442;-62
2023/04/06 11:03:14;;;;;;;7.22;3.75;;;;;;;18.90;34.36;101385.66;4932495;29;20109;-62
2023/04/06 11:05:44;;;;;;;9.90;4.20;;;;;;;18.87;33.43;101394.94;4933050;28;20495;-62
2023/04/06 11:08:09;;;;;;;9.23;5.43;;;;;;;18.79;34.30;101384.09;4933138;28;20036;-62
2023/04/06 11:10:35;;;;;;;9.35;3.88;;;;;;;18.78;34.22;101397.84;4917776;29;20040;-62
2023/04/06 11:13:00;;;;;;;11.30;4.88;;;;;;;18.75;34.22;101393.59;4933150;28;20055;-62
2023/04/06 11:15:26;;;;;;;10.48;4.43;;;;;;;18.72;34.40;101388.50;4934334;28;20411;-62